sensor_id;sensor_type;location;lat;lon;timestamp;P1;durP1;ratioP1;P2;durP2;ratioP2
34146;SDS011;20423;49.448;9.056;2022-09-29T10:30:44;9.65;;;7.45;;
34146;SDS011;20423;49.448;9.056;2022-09-29T10:33:21;13.93;;;9.00;;
34146;SDS011;20423;49.448;9.056;2022-09-29T10:35:49;9.85;;;5.97;;
34146;SDS011;20423;49.448;9.056;2022-09-29T10:38:36;8.70;;;6.70;;
34146;SDS011;20423;49.448;9.056;2022-09-29T10:41:05;11.23;;;6.55;;
34146;SDS011;20423;49.448;9.056;2022-09-29T10:43:36;8.75;;;6.00;;
34146;SDS011;20423;49.448;9.056;2022-09-29T10:49:15;11.75;;;5.07;;
34146;SDS011;20423;49.448;9.056;2022-09-29T10:52:04;11.98;;;5.35;;
34146;SDS011;20423;49.448;9.056;2022-09-29T10:54:51;16.02;;;6.18;;
34146;SDS011;20423;49.448;9.056;2022-09-29T10:57:26;8.65;;;4.60;;
34146;SDS011;20423;49.448;9.056;2022-09-29T10:59:55;11.25;;;4.30;;
34146;SDS011;20423;49.448;9.056;2022-09-29T11:02:35;8.93;;;4.97;;
34146;SDS011;20423;49.448;9.056;2022-09-29T11:07:56;20.92;;;8.13;;
34146;SDS011;20423;49.448;9.056;2022-09-29T11:15:44;15.52;;;5.30;;
34146;SDS011;20423;49.448;9.056;2022-09-29T11:23:46;11.20;;;4.13;;
34146;SDS011;20423;49.448;9.056;2022-09-29T11:32:05;6.50;;;3.53;;
34146;SDS011;20423;49.448;9.056;2022-09-29T11:40:57;9.77;;;4.30;;
34146;SDS011;20423;49.448;9.056;2022-09-29T11:43:19;7.22;;;4.18;;
34146;SDS011;20423;49.448;9.056;2022-09-29T11:49:07;6.53;;;4.10;;
34146;SDS011;20423;49.448;9.056;2022-09-29T12:09:00;9.63;;;4.53;;
34146;SDS011;20423;49.448;9.056;2022-09-29T12:11:52;7.93;;;4.30;;
34146;SDS011;20423;49.448;9.056;2022-09-29T12:17:20;9.38;;;4.80;;
34146;SDS011;20423;49.448;9.056;2022-09-29T12:20:05;8.23;;;4.07;;
34146;SDS011;20423;49.448;9.056;2022-09-29T12:22:53;9.85;;;4.60;;
34146;SDS011;20423;49.448;9.056;2022-09-29T12:25:25;7.53;;;4.20;;
34146;SDS011;20423;49.448;9.056;2022-09-29T12:28:17;8.80;;;4.68;;
34146;SDS011;20423;49.448;9.056;2022-09-29T12:30:51;8.27;;;4.18;;
34146;SDS011;20423;49.448;9.056;2022-09-29T12:33:45;14.50;;;4.70;;
34146;SDS011;20423;49.448;9.056;2022-09-29T12:50:36;10.00;;;3.97;;
34146;SDS011;20423;49.448;9.056;2022-09-29T12:53:24;6.85;;;3.67;;
34146;SDS011;20423;49.448;9.056;2022-09-29T12:58:53;7.38;;;4.07;;
34146;SDS011;20423;49.448;9.056;2022-09-29T13:01:37;8.40;;;3.83;;
34146;SDS011;20423;49.448;9.056;2022-09-29T13:04:22;5.85;;;3.30;;
34146;SDS011;20423;49.448;9.056;2022-09-29T13:10:21;9.40;;;3.80;;
34146;SDS011;20423;49.448;9.056;2022-09-29T13:16:26;22.73;;;10.32;;
34146;SDS011;20423;49.448;9.056;2022-09-29T13:27:42;8.25;;;3.55;;
34146;SDS011;20423;49.448;9.056;2022-09-29T13:30:32;8.55;;;4.20;;
34146;SDS011;20423;49.448;9.056;2022-09-29T13:33:13;11.73;;;4.40;;
34146;SDS011;20423;49.448;9.056;2022-09-29T13:35:48;9.65;;;3.75;;
34146;SDS011;20423;49.448;9.056;2022-09-29T13:38:16;7.28;;;3.33;;
34146;SDS011;20423;49.448;9.056;2022-09-29T13:43:42;7.78;;;3.63;;
34146;SDS011;20423;49.448;9.056;2022-09-29T13:54:23;15.98;;;8.38;;
34146;SDS011;20423;49.448;9.056;2022-09-29T13:59:30;7.65;;;3.90;;
34146;SDS011;20423;49.448;9.056;2022-09-29T14:01:57;10.20;;;3.58;;
34146;SDS011;20423;49.448;9.056;2022-09-29T14:04:34;7.70;;;3.42;;
34146;SDS011;20423;49.448;9.056;2022-09-29T14:07:33;9.73;;;3.80;;
34146;SDS011;20423;49.448;9.056;2022-09-29T14:13:11;12.77;;;3.90;;
34146;SDS011;20423;49.448;9.056;2022-09-29T14:15:42;8.52;;;2.47;;
34146;SDS011;20423;49.448;9.056;2022-09-29T14:18:40;11.65;;;3.20;;
34146;SDS011;20423;49.448;9.056;2022-09-29T14:27:22;5.88;;;2.40;;
34146;SDS011;20423;49.448;9.056;2022-09-29T14:32:41;6.30;;;3.40;;
34146;SDS011;20423;49.448;9.056;2022-09-29T14:35:28;8.55;;;2.50;;
34146;SDS011;20423;49.448;9.056;2022-09-29T14:37:59;5.88;;;4.35;;
34146;SDS011;20423;49.448;9.056;2022-09-29T14:40:32;15.02;;;3.15;;
34146;SDS011;20423;49.448;9.056;2022-09-29T14:43:14;3.78;;;2.40;;
34146;SDS011;20423;49.448;9.056;2022-09-29T15:04:06;9.45;;;2.33;;
34146;SDS011;20423;49.448;9.056;2022-09-29T15:09:37;9.43;;;2.90;;
34146;SDS011;20423;49.448;9.056;2022-09-29T15:12:13;5.32;;;3.08;;
34146;SDS011;20423;49.448;9.056;2022-09-29T15:14:40;7.30;;;2.50;;
34146;SDS011;20423;49.448;9.056;2022-09-29T15:25:45;4.47;;;2.60;;
34146;SDS011;20423;49.448;9.056;2022-09-29T15:30:43;5.32;;;2.28;;
34146;SDS011;20423;49.448;9.056;2022-09-29T15:33:30;17.10;;;2.85;;
34146;SDS011;20423;49.448;9.056;2022-09-29T15:36:00;4.07;;;2.22;;
34146;SDS011;20423;49.448;9.056;2022-09-29T15:38:39;6.25;;;2.45;;
34146;SDS011;20423;49.448;9.056;2022-09-29T15:41:15;4.93;;;2.30;;
34146;SDS011;20423;49.448;9.056;2022-09-29T15:43:51;5.80;;;2.40;;
34146;SDS011;20423;49.448;9.056;2022-09-29T15:49:13;10.75;;;3.80;;
34146;SDS011;20423;49.448;9.056;2022-09-29T15:51:43;8.13;;;2.70;;
34146;SDS011;20423;49.448;9.056;2022-09-29T15:54:32;7.95;;;2.70;;
34146;SDS011;20423;49.448;9.056;2022-09-29T15:57:01;10.35;;;2.80;;
34146;SDS011;20423;49.448;9.056;2022-09-29T15:59:47;3.40;;;2.50;;
34146;SDS011;20423;49.448;9.056;2022-09-29T16:02:23;11.05;;;3.05;;
34146;SDS011;20423;49.448;9.056;2022-09-29T16:05:06;4.75;;;2.53;;
34146;SDS011;20423;49.448;9.056;2022-09-29T16:07:39;7.63;;;2.90;;
34146;SDS011;20423;49.448;9.056;2022-09-29T16:10:16;11.32;;;2.95;;
34146;SDS011;20423;49.448;9.056;2022-09-29T16:12:45;7.90;;;2.83;;
34146;SDS011;20423;49.448;9.056;2022-09-29T16:15:19;4.20;;;3.28;;
34146;SDS011;20423;49.448;9.056;2022-09-29T16:17:56;9.70;;;4.30;;
34146;SDS011;20423;49.448;9.056;2022-09-29T16:20:28;5.88;;;4.03;;
34146;SDS011;20423;49.448;9.056;2022-09-29T16:22:55;9.73;;;3.90;;
34146;SDS011;20423;49.448;9.056;2022-09-29T16:25:30;5.60;;;2.90;;
34146;SDS011;20423;49.448;9.056;2022-09-29T16:27:59;7.85;;;4.53;;
34146;SDS011;20423;49.448;9.056;2022-09-29T16:30:32;8.88;;;4.80;;
34146;SDS011;20423;49.448;9.056;2022-09-29T16:33:14;10.35;;;5.82;;
34146;SDS011;20423;49.448;9.056;2022-09-29T16:36:06;10.40;;;6.30;;
34146;SDS011;20423;49.448;9.056;2022-09-29T16:39:00;17.63;;;7.30;;
34146;SDS011;20423;49.448;9.056;2022-09-29T16:41:34;13.23;;;7.70;;
34146;SDS011;20423;49.448;9.056;2022-09-29T16:44:13;15.48;;;10.00;;
34146;SDS011;20423;49.448;9.056;2022-09-29T16:46:46;13.95;;;7.93;;
34146;SDS011;20423;49.448;9.056;2022-09-29T16:52:00;20.25;;;9.25;;
34146;SDS011;20423;49.448;9.056;2022-09-29T16:54:38;17.17;;;9.23;;
34146;SDS011;20423;49.448;9.056;2022-09-29T16:57:14;14.15;;;9.35;;
34146;SDS011;20423;49.448;9.056;2022-09-29T17:00:12;12.75;;;8.98;;
34146;SDS011;20423;49.448;9.056;2022-09-29T17:02:38;13.30;;;8.38;;
34146;SDS011;20423;49.448;9.056;2022-09-29T17:05:07;21.98;;;10.13;;
34146;SDS011;20423;49.448;9.056;2022-09-29T17:07:46;25.10;;;10.93;;
34146;SDS011;20423;49.448;9.056;2022-09-29T17:10:16;16.02;;;8.00;;
34146;SDS011;20423;49.448;9.056;2022-09-29T17:12:44;8.35;;;5.35;;
34146;SDS011;20423;49.448;9.056;2022-09-29T17:15:31;13.13;;;6.70;;
34146;SDS011;20423;49.448;9.056;2022-09-29T17:17:58;15.43;;;8.35;;
34146;SDS011;20423;49.448;9.056;2022-09-29T17:20:31;15.73;;;7.65;;
34146;SDS011;20423;49.448;9.056;2022-09-29T17:22:57;17.25;;;8.68;;
34146;SDS011;20423;49.448;9.056;2022-09-29T17:25:26;13.65;;;8.45;;
34146;SDS011;20423;49.448;9.056;2022-09-29T17:27:52;16.00;;;9.55;;
34146;SDS011;20423;49.448;9.056;2022-09-29T17:30:36;17.42;;;9.57;;
34146;SDS011;20423;49.448;9.056;2022-09-29T17:33:03;20.73;;;10.48;;
34146;SDS011;20423;49.448;9.056;2022-09-29T17:35:30;21.00;;;10.13;;
34146;SDS011;20423;49.448;9.056;2022-09-29T17:38:09;16.35;;;8.90;;
34146;SDS011;20423;49.448;9.056;2022-09-29T17:43:22;19.52;;;9.32;;
34146;SDS011;20423;49.448;9.056;2022-09-29T17:45:49;12.38;;;8.70;;
34146;SDS011;20423;49.448;9.056;2022-09-29T17:48:15;13.63;;;8.48;;
34146;SDS011;20423;49.448;9.056;2022-09-29T17:50:50;16.67;;;10.57;;
34146;SDS011;20423;49.448;9.056;2022-09-29T17:53:24;15.60;;;9.98;;
34146;SDS011;20423;49.448;9.056;2022-09-29T17:55:51;21.17;;;13.60;;
34146;SDS011;20423;49.448;9.056;2022-09-29T17:58:20;24.52;;;15.68;;
34146;SDS011;20423;49.448;9.056;2022-09-29T18:00:48;24.27;;;15.38;;
34146;SDS011;20423;49.448;9.056;2022-09-29T18:03:24;26.58;;;15.02;;
34146;SDS011;20423;49.448;9.056;2022-09-29T18:05:51;27.55;;;14.88;;
34146;SDS011;20423;49.448;9.056;2022-09-29T18:08:20;26.23;;;14.55;;
34146;SDS011;20423;49.448;9.056;2022-09-29T18:10:54;40.08;;;19.77;;
34146;SDS011;20423;49.448;9.056;2022-09-29T18:13:22;32.35;;;20.98;;
34146;SDS011;20423;49.448;9.056;2022-09-29T18:15:51;39.67;;;21.13;;
34146;SDS011;20423;49.448;9.056;2022-09-29T18:18:19;42.15;;;22.85;;
34146;SDS011;20423;49.448;9.056;2022-09-29T18:20:53;37.20;;;21.85;;
34146;SDS011;20423;49.448;9.056;2022-09-29T18:23:19;33.40;;;20.00;;
34146;SDS011;20423;49.448;9.056;2022-09-29T18:25:47;35.08;;;20.77;;
34146;SDS011;20423;49.448;9.056;2022-09-29T18:28:15;69.20;;;35.78;;
34146;SDS011;20423;49.448;9.056;2022-09-29T18:30:49;69.38;;;35.38;;
34146;SDS011;20423;49.448;9.056;2022-09-29T18:33:19;47.50;;;25.17;;
34146;SDS011;20423;49.448;9.056;2022-09-29T18:35:50;48.05;;;24.23;;
34146;SDS011;20423;49.448;9.056;2022-09-29T18:38:17;41.53;;;24.20;;
34146;SDS011;20423;49.448;9.056;2022-09-29T18:40:53;31.27;;;18.02;;
34146;SDS011;20423;49.448;9.056;2022-09-29T18:43:20;15.18;;;10.65;;
34146;SDS011;20423;49.448;9.056;2022-09-29T18:45:50;19.63;;;9.65;;
34146;SDS011;20423;49.448;9.056;2022-09-29T18:48:24;13.18;;;8.15;;
34146;SDS011;20423;49.448;9.056;2022-09-29T18:50:50;12.43;;;8.02;;
34146;SDS011;20423;49.448;9.056;2022-09-29T18:53:17;14.40;;;8.80;;
34146;SDS011;20423;49.448;9.056;2022-09-29T18:55:45;15.85;;;8.80;;
34146;SDS011;20423;49.448;9.056;2022-09-29T18:58:12;16.65;;;11.30;;
34146;SDS011;20423;49.448;9.056;2022-09-29T19:00:49;15.32;;;10.93;;
34146;SDS011;20423;49.448;9.056;2022-09-29T19:03:19;20.00;;;12.60;;
34146;SDS011;20423;49.448;9.056;2022-09-29T19:05:47;26.20;;;12.38;;
34146;SDS011;20423;49.448;9.056;2022-09-29T19:08:22;22.52;;;12.48;;
34146;SDS011;20423;49.448;9.056;2022-09-29T19:10:49;26.48;;;14.82;;
34146;SDS011;20423;49.448;9.056;2022-09-29T19:13:16;28.50;;;13.50;;
34146;SDS011;20423;49.448;9.056;2022-09-29T19:15:43;23.98;;;12.10;;
34146;SDS011;20423;49.448;9.056;2022-09-29T19:18:13;21.35;;;11.82;;
34146;SDS011;20423;49.448;9.056;2022-09-29T19:20:46;22.25;;;11.63;;
34146;SDS011;20423;49.448;9.056;2022-09-29T19:23:13;17.85;;;11.32;;
34146;SDS011;20423;49.448;9.056;2022-09-29T19:25:44;29.45;;;17.42;;
34146;SDS011;20423;49.448;9.056;2022-09-29T19:28:14;44.22;;;27.05;;
34146;SDS011;20423;49.448;9.056;2022-09-29T19:30:41;45.88;;;27.80;;
34146;SDS011;20423;49.448;9.056;2022-09-29T19:33:10;33.22;;;18.38;;
34146;SDS011;20423;49.448;9.056;2022-09-29T19:35:42;27.38;;;17.67;;
34146;SDS011;20423;49.448;9.056;2022-09-29T19:38:18;25.23;;;12.15;;
34146;SDS011;20423;49.448;9.056;2022-09-29T19:40:45;20.88;;;11.13;;
34146;SDS011;20423;49.448;9.056;2022-09-29T19:43:11;27.13;;;14.38;;
34146;SDS011;20423;49.448;9.056;2022-09-29T19:45:38;25.42;;;15.77;;
34146;SDS011;20423;49.448;9.056;2022-09-29T19:48:13;30.33;;;16.42;;
34146;SDS011;20423;49.448;9.056;2022-09-29T19:50:41;25.38;;;14.02;;
34146;SDS011;20423;49.448;9.056;2022-09-29T19:53:34;17.13;;;10.98;;
34146;SDS011;20423;49.448;9.056;2022-09-29T19:56:00;21.17;;;10.52;;
34146;SDS011;20423;49.448;9.056;2022-09-29T19:58:31;16.38;;;9.13;;
34146;SDS011;20423;49.448;9.056;2022-09-29T20:00:57;21.70;;;7.80;;
34146;SDS011;20423;49.448;9.056;2022-09-29T20:03:24;12.27;;;7.70;;
34146;SDS011;20423;49.448;9.056;2022-09-29T20:05:49;13.32;;;7.15;;
34146;SDS011;20423;49.448;9.056;2022-09-29T20:08:15;16.83;;;8.63;;
34146;SDS011;20423;49.448;9.056;2022-09-29T20:10:41;13.88;;;8.45;;
34146;SDS011;20423;49.448;9.056;2022-09-29T20:13:06;10.52;;;7.47;;
34146;SDS011;20423;49.448;9.056;2022-09-29T20:15:39;12.02;;;7.72;;
34146;SDS011;20423;49.448;9.056;2022-09-29T20:18:05;17.08;;;7.97;;
34146;SDS011;20423;49.448;9.056;2022-09-29T20:20:32;13.35;;;8.68;;
34146;SDS011;20423;49.448;9.056;2022-09-29T20:22:59;15.52;;;8.60;;
34146;SDS011;20423;49.448;9.056;2022-09-29T20:25:27;18.58;;;9.80;;
34146;SDS011;20423;49.448;9.056;2022-09-29T20:27:53;17.73;;;8.45;;
34146;SDS011;20423;49.448;9.056;2022-09-29T20:30:19;13.05;;;7.88;;
34146;SDS011;20423;49.448;9.056;2022-09-29T20:32:45;14.80;;;7.75;;
34146;SDS011;20423;49.448;9.056;2022-09-29T20:35:11;11.90;;;7.55;;
34146;SDS011;20423;49.448;9.056;2022-09-29T20:37:37;14.50;;;7.93;;
34146;SDS011;20423;49.448;9.056;2022-09-29T20:40:03;14.32;;;7.68;;
34146;SDS011;20423;49.448;9.056;2022-09-29T20:42:29;13.10;;;7.80;;
34146;SDS011;20423;49.448;9.056;2022-09-29T20:44:57;14.68;;;8.05;;
34146;SDS011;20423;49.448;9.056;2022-09-29T20:47:23;17.65;;;7.53;;
34146;SDS011;20423;49.448;9.056;2022-09-29T20:49:49;13.05;;;8.98;;
34146;SDS011;20423;49.448;9.056;2022-09-29T20:52:15;19.02;;;8.90;;
34146;SDS011;20423;49.448;9.056;2022-09-29T20:54:41;16.33;;;9.38;;
34146;SDS011;20423;49.448;9.056;2022-09-29T20:57:07;28.40;;;12.55;;
34146;SDS011;20423;49.448;9.056;2022-09-29T20:59:32;15.82;;;9.63;;
34146;SDS011;20423;49.448;9.056;2022-09-29T21:02:00;10.95;;;6.60;;
34146;SDS011;20423;49.448;9.056;2022-09-29T21:04:26;11.35;;;7.00;;
34146;SDS011;20423;49.448;9.056;2022-09-29T21:06:51;12.90;;;7.20;;
34146;SDS011;20423;49.448;9.056;2022-09-29T21:09:18;9.05;;;6.22;;
34146;SDS011;20423;49.448;9.056;2022-09-29T21:11:46;10.60;;;6.22;;
34146;SDS011;20423;49.448;9.056;2022-09-29T21:14:16;13.30;;;7.32;;
34146;SDS011;20423;49.448;9.056;2022-09-29T21:16:48;14.98;;;9.40;;
34146;SDS011;20423;49.448;9.056;2022-09-29T21:19:15;19.42;;;9.75;;
34146;SDS011;20423;49.448;9.056;2022-09-29T21:21:42;15.35;;;9.73;;
34146;SDS011;20423;49.448;9.056;2022-09-29T21:24:08;14.60;;;9.98;;
34146;SDS011;20423;49.448;9.056;2022-09-29T21:26:35;24.35;;;12.65;;
34146;SDS011;20423;49.448;9.056;2022-09-29T21:29:01;41.67;;;20.63;;
34146;SDS011;20423;49.448;9.056;2022-09-29T21:31:28;36.72;;;16.23;;
34146;SDS011;20423;49.448;9.056;2022-09-29T21:33:56;25.95;;;14.40;;
34146;SDS011;20423;49.448;9.056;2022-09-29T21:36:28;36.40;;;18.15;;
34146;SDS011;20423;49.448;9.056;2022-09-29T21:38:55;29.43;;;14.20;;
34146;SDS011;20423;49.448;9.056;2022-09-29T21:41:34;24.52;;;11.80;;
34146;SDS011;20423;49.448;9.056;2022-09-29T21:44:05;19.15;;;10.35;;
34146;SDS011;20423;49.448;9.056;2022-09-29T21:46:35;20.63;;;11.32;;
34146;SDS011;20423;49.448;9.056;2022-09-29T21:49:02;20.30;;;9.40;;
34146;SDS011;20423;49.448;9.056;2022-09-29T21:51:30;21.50;;;9.85;;
34146;SDS011;20423;49.448;9.056;2022-09-29T21:53:59;18.00;;;11.13;;
34146;SDS011;20423;49.448;9.056;2022-09-29T21:56:27;15.10;;;10.95;;
34146;SDS011;20423;49.448;9.056;2022-09-29T21:58:56;13.25;;;8.77;;
34146;SDS011;20423;49.448;9.056;2022-09-29T22:01:22;23.17;;;8.32;;
34146;SDS011;20423;49.448;9.056;2022-09-29T22:03:49;12.60;;;7.20;;
34146;SDS011;20423;49.448;9.056;2022-09-29T22:06:29;17.42;;;8.07;;
34146;SDS011;20423;49.448;9.056;2022-09-29T22:08:55;10.52;;;6.78;;
34146;SDS011;20423;49.448;9.056;2022-09-29T22:11:23;14.73;;;7.97;;
34146;SDS011;20423;49.448;9.056;2022-09-29T22:13:54;13.85;;;7.15;;
34146;SDS011;20423;49.448;9.056;2022-09-29T22:16:23;17.13;;;6.47;;
34146;SDS011;20423;49.448;9.056;2022-09-29T22:18:53;8.38;;;6.25;;
34146;SDS011;20423;49.448;9.056;2022-09-29T22:21:20;12.57;;;7.53;;
34146;SDS011;20423;49.448;9.056;2022-09-29T22:23:51;17.52;;;7.20;;
34146;SDS011;20423;49.448;9.056;2022-09-29T22:26:18;10.27;;;6.85;;
34146;SDS011;20423;49.448;9.056;2022-09-29T22:28:44;18.38;;;9.13;;
34146;SDS011;20423;49.448;9.056;2022-09-29T22:31:11;15.43;;;7.95;;
34146;SDS011;20423;49.448;9.056;2022-09-29T22:33:39;16.20;;;7.57;;
34146;SDS011;20423;49.448;9.056;2022-09-29T22:36:06;15.40;;;7.30;;
34146;SDS011;20423;49.448;9.056;2022-09-29T22:38:33;11.60;;;6.75;;
34146;SDS011;20423;49.448;9.056;2022-09-29T22:41:00;15.45;;;7.63;;
34146;SDS011;20423;49.448;9.056;2022-09-29T22:43:31;13.23;;;7.50;;
34146;SDS011;20423;49.448;9.056;2022-09-29T22:45:57;14.68;;;7.50;;
34146;SDS011;20423;49.448;9.056;2022-09-29T22:48:22;19.13;;;7.82;;
34146;SDS011;20423;49.448;9.056;2022-09-29T22:50:49;13.05;;;7.72;;
34146;SDS011;20423;49.448;9.056;2022-09-29T22:53:18;11.95;;;7.82;;
34146;SDS011;20423;49.448;9.056;2022-09-29T22:55:44;15.82;;;8.40;;
34146;SDS011;20423;49.448;9.056;2022-09-29T22:58:10;15.00;;;9.10;;
34146;SDS011;20423;49.448;9.056;2022-09-29T23:00:37;17.50;;;9.68;;
34146;SDS011;20423;49.448;9.056;2022-09-29T23:03:04;17.45;;;9.85;;
34146;SDS011;20423;49.448;9.056;2022-09-29T23:05:31;16.08;;;9.68;;
34146;SDS011;20423;49.448;9.056;2022-09-29T23:07:57;27.88;;;11.65;;
34146;SDS011;20423;49.448;9.056;2022-09-29T23:10:23;24.38;;;10.30;;
34146;SDS011;20423;49.448;9.056;2022-09-29T23:12:49;19.30;;;10.63;;
34146;SDS011;20423;49.448;9.056;2022-09-29T23:15:15;20.45;;;10.45;;
34146;SDS011;20423;49.448;9.056;2022-09-29T23:17:41;19.85;;;9.80;;
34146;SDS011;20423;49.448;9.056;2022-09-29T23:20:07;17.25;;;9.02;;
34146;SDS011;20423;49.448;9.056;2022-09-29T23:22:33;23.20;;;9.40;;
34146;SDS011;20423;49.448;9.056;2022-09-29T23:25:00;17.17;;;9.45;;
34146;SDS011;20423;49.448;9.056;2022-09-29T23:27:28;21.55;;;9.77;;
34146;SDS011;20423;49.448;9.056;2022-09-29T23:29:54;16.55;;;9.63;;
34146;SDS011;20423;49.448;9.056;2022-09-29T23:32:20;16.83;;;9.18;;
34146;SDS011;20423;49.448;9.056;2022-09-29T23:34:45;18.35;;;9.45;;
34146;SDS011;20423;49.448;9.056;2022-09-29T23:37:11;15.50;;;9.27;;
34146;SDS011;20423;49.448;9.056;2022-09-29T23:39:37;23.48;;;11.70;;
34146;SDS011;20423;49.448;9.056;2022-09-29T23:42:03;19.83;;;11.18;;
34146;SDS011;20423;49.448;9.056;2022-09-29T23:44:29;25.63;;;12.60;;
34146;SDS011;20423;49.448;9.056;2022-09-29T23:46:56;19.38;;;10.65;;
34146;SDS011;20423;49.448;9.056;2022-09-29T23:49:23;17.15;;;9.38;;
34146;SDS011;20423;49.448;9.056;2022-09-29T23:51:55;13.40;;;8.90;;
34146;SDS011;20423;49.448;9.056;2022-09-29T23:54:24;18.80;;;9.35;;
34146;SDS011;20423;49.448;9.056;2022-09-29T23:56:51;21.35;;;9.10;;
34146;SDS011;20423;49.448;9.056;2022-09-29T23:59:19;18.60;;;10.07;;
